THY1ZH LTFM-LTAY
Flight info
| Callsign | THY1ZH |
|---|---|
| Flight time | 0h 42m |
| Altitude | 33000 |
| Route | RATVU1E/36 RATVU UT35 TEKDO UW78 RESLI |
| Aircraft | B738/M-SDE2E3FGHIRWXY/LB1 |
Departure
| Time | 2026-05-01 12:55 |
|---|---|
| Airport | İstanbul Airport (LTFM) |
Arrival
| Time | 2026-05-01 13:37 |
|---|---|
| Airport | Çardak Airport (LTAY) |
| Time | Latitude | Longitude | Altitude | Speed | Heading |
|---|---|---|---|---|---|
| 2026-05-01 12:19 | 41.25700 | 28.74795 | 334 ft | 0 kts | 0° |
| 2026-05-01 12:43 | 41.25690 | 28.74795 | 333 ft | 2 kts | 360° |
| 2026-05-01 12:43 | 41.25675 | 28.74795 | 333 ft | 2 kts | 0° |
| 2026-05-01 12:43 | 41.25660 | 28.74796 | 333 ft | 2 kts | 343° |
| 2026-05-01 12:43 | 41.25646 | 28.74804 | 333 ft | 2 kts | 323° |
| 2026-05-01 12:44 | 41.25636 | 28.74819 | 334 ft | 2 kts | 301° |
| 2026-05-01 12:44 | 41.25630 | 28.74836 | 334 ft | 2 kts | 281° |
| 2026-05-01 12:44 | 41.25630 | 28.74876 | 334 ft | 2 kts | 271° |
| 2026-05-01 12:45 | 41.25630 | 28.74916 | 334 ft | 2 kts | 270° |
| 2026-05-01 12:45 | 41.25630 | 28.74936 | 334 ft | 2 kts | 269° |
| 2026-05-01 12:45 | 41.25630 | 28.74955 | 334 ft | 2 kts | 269° |
| 2026-05-01 12:46 | 41.25631 | 28.74975 | 334 ft | 2 kts | 269° |
| 2026-05-01 12:46 | 41.25628 | 28.74995 | 334 ft | 2 kts | 292° |
| 2026-05-01 12:46 | 41.25621 | 28.75012 | 334 ft | 2 kts | 309° |
| 2026-05-01 12:46 | 41.25610 | 28.75026 | 334 ft | 2 kts | 328° |
| 2026-05-01 12:47 | 41.25596 | 28.75034 | 334 ft | 2 kts | 346° |
| 2026-05-01 12:47 | 41.25581 | 28.75035 | 333 ft | 2 kts | 4° |
| 2026-05-01 12:47 | 41.25566 | 28.75035 | 333 ft | 2 kts | 359° |
| 2026-05-01 12:47 | 41.25561 | 28.75035 | 334 ft | 0 kts | 359° |
| 2026-05-01 12:50 | 41.25567 | 28.75035 | 333 ft | 2 kts | 359° |
| 2026-05-01 12:51 | 41.25600 | 28.75042 | 334 ft | 7 kts | 26° |
| 2026-05-01 12:51 | 41.25631 | 28.75113 | 333 ft | 10 kts | 83° |
| 2026-05-01 12:51 | 41.25635 | 28.75324 | 334 ft | 13 kts | 83° |
| 2026-05-01 12:52 | 41.25706 | 28.75395 | 333 ft | 16 kts | 0° |
| 2026-05-01 12:52 | 41.25941 | 28.75390 | 334 ft | 16 kts | 359° |
| 2026-05-01 12:52 | 41.26051 | 28.75389 | 334 ft | 15 kts | 359° |
| 2026-05-01 12:53 | 41.26228 | 28.75452 | 334 ft | 12 kts | 74° |
| 2026-05-01 12:53 | 41.26239 | 28.75563 | 334 ft | 11 kts | 96° |
| 2026-05-01 12:53 | 41.26270 | 28.75666 | 334 ft | 12 kts | 18° |
| 2026-05-01 12:54 | 41.26326 | 28.75670 | 334 ft | 0 kts | 360° |
| 2026-05-01 12:54 | 41.26651 | 28.75663 | 334 ft | 78 kts | 359° |
| 2026-05-01 12:54 | 41.27399 | 28.75643 | 334 ft | 134 kts | 0° |
| 2026-05-01 12:55 | 41.29566 | 28.75609 | 1373 ft | 149 kts | 11° |
| 2026-05-01 12:55 | 41.30434 | 28.76223 | 1847 ft | 149 kts | 52° |
| 2026-05-01 12:55 | 41.31017 | 28.77390 | 2262 ft | 156 kts | 44° |
| 2026-05-01 12:56 | 41.32011 | 28.78045 | 2555 ft | 170 kts | 18° |
| 2026-05-01 12:56 | 41.33168 | 28.78594 | 2854 ft | 183 kts | 27° |
| 2026-05-01 12:56 | 41.34337 | 28.79465 | 3124 ft | 203 kts | 31° |
| 2026-05-01 12:56 | 41.35591 | 28.80443 | 3544 ft | 215 kts | 30° |
| 2026-05-01 12:57 | 41.36923 | 28.81504 | 3907 ft | 230 kts | 35° |
| 2026-05-01 12:57 | 41.38479 | 28.85224 | 5006 ft | 250 kts | 83° |
| 2026-05-01 12:57 | 41.38465 | 28.87546 | 5616 ft | 256 kts | 92° |
| 2026-05-01 12:58 | 41.38026 | 28.89839 | 6236 ft | 264 kts | 110° |
| 2026-05-01 12:58 | 41.37055 | 28.91958 | 6848 ft | 273 kts | 126° |
| 2026-05-01 12:58 | 41.35635 | 28.93665 | 7468 ft | 282 kts | 146° |
| 2026-05-01 12:59 | 41.31795 | 28.94835 | 8804 ft | 291 kts | 178° |
| 2026-05-01 12:59 | 41.29763 | 28.94853 | 9446 ft | 295 kts | 179° |
| 2026-05-01 12:59 | 41.25631 | 28.94871 | 10547 ft | 309 kts | 180° |
| 2026-05-01 13:00 | 41.21130 | 28.94599 | 11284 ft | 337 kts | 185° |
| 2026-05-01 13:00 | 41.18760 | 28.94342 | 11651 ft | 351 kts | 186° |
| 2026-05-01 13:01 | 41.13785 | 28.93855 | 12855 ft | 363 kts | 181° |
| 2026-05-01 13:01 | 41.11259 | 28.94241 | 13516 ft | 369 kts | 169° |
| 2026-05-01 13:01 | 41.06259 | 28.96160 | 14910 ft | 377 kts | 164° |
| 2026-05-01 13:02 | 41.03780 | 28.97215 | 15597 ft | 380 kts | 165° |
| 2026-05-01 13:07 | 40.45786 | 29.18287 | 27381 ft | 441 kts | 170° |
| 2026-05-01 13:07 | 40.42820 | 29.19347 | 27808 ft | 444 kts | 171° |
| 2026-05-01 13:07 | 40.39812 | 29.20423 | 28120 ft | 449 kts | 171° |
| 2026-05-01 13:08 | 40.36789 | 29.21500 | 28389 ft | 454 kts | 170° |
| 2026-05-01 13:08 | 40.33701 | 29.22598 | 28702 ft | 458 kts | 171° |
| 2026-05-01 13:08 | 40.30645 | 29.23685 | 29148 ft | 459 kts | 171° |
| 2026-05-01 13:08 | 40.27541 | 29.24791 | 29602 ft | 460 kts | 171° |
| 2026-05-01 13:09 | 40.24462 | 29.25890 | 30027 ft | 460 kts | 171° |
| 2026-05-01 13:09 | 40.21382 | 29.26987 | 30490 ft | 459 kts | 171° |
| 2026-05-01 13:09 | 40.18327 | 29.28073 | 30964 ft | 456 kts | 171° |
| 2026-05-01 13:09 | 40.15245 | 29.29168 | 31098 ft | 448 kts | 172° |
| 2026-05-01 13:10 | 40.12306 | 29.30216 | 31086 ft | 437 kts | 172° |
| 2026-05-01 13:10 | 40.06475 | 29.32281 | 31083 ft | 436 kts | 172° |
| 2026-05-01 13:11 | 40.00736 | 29.34290 | 31056 ft | 438 kts | 172° |
| 2026-05-01 13:11 | 39.94833 | 29.36357 | 31050 ft | 439 kts | 172° |
| 2026-05-01 13:12 | 39.88964 | 29.38603 | 31051 ft | 444 kts | 168° |
| 2026-05-01 13:12 | 39.83226 | 29.41603 | 31057 ft | 448 kts | 164° |
| 2026-05-01 13:13 | 39.77487 | 29.44871 | 31055 ft | 448 kts | 163° |
| 2026-05-01 13:13 | 39.71757 | 29.48118 | 31051 ft | 450 kts | 164° |
| 2026-05-01 13:14 | 39.66053 | 29.51298 | 31050 ft | 449 kts | 165° |
| 2026-05-01 13:14 | 39.60278 | 29.54406 | 31044 ft | 447 kts | 166° |
| 2026-05-01 13:15 | 39.54447 | 29.57327 | 31041 ft | 449 kts | 167° |
| 2026-05-01 13:15 | 39.48644 | 29.60178 | 31040 ft | 449 kts | 167° |
| 2026-05-01 13:16 | 39.42776 | 29.63068 | 31030 ft | 449 kts | 167° |
| 2026-05-01 13:16 | 39.36959 | 29.65946 | 31028 ft | 447 kts | 167° |
| 2026-05-01 13:17 | 39.25258 | 29.71737 | 30826 ft | 450 kts | 167° |
| 2026-05-01 13:18 | 39.19491 | 29.74599 | 30335 ft | 440 kts | 167° |
| 2026-05-01 13:18 | 39.16634 | 29.76014 | 30069 ft | 438 kts | 167° |
| 2026-05-01 13:18 | 39.13807 | 29.77411 | 29795 ft | 436 kts | 167° |
| 2026-05-01 13:18 | 39.10984 | 29.78802 | 29521 ft | 436 kts | 167° |
| 2026-05-01 13:19 | 39.08130 | 29.80207 | 29256 ft | 435 kts | 167° |
| 2026-05-01 13:19 | 39.05345 | 29.81576 | 28991 ft | 432 kts | 167° |
| 2026-05-01 13:19 | 38.99780 | 29.84319 | 28283 ft | 419 kts | 167° |
| 2026-05-01 13:20 | 38.97103 | 29.85636 | 27821 ft | 418 kts | 167° |
| 2026-05-01 13:20 | 38.94357 | 29.86979 | 27313 ft | 421 kts | 167° |
| 2026-05-01 13:20 | 38.91643 | 29.88305 | 26799 ft | 417 kts | 167° |
| 2026-05-01 13:21 | 38.86279 | 29.90919 | 25803 ft | 408 kts | 167° |
| 2026-05-01 13:21 | 38.83616 | 29.92193 | 25306 ft | 404 kts | 167° |
| 2026-05-01 13:21 | 38.81006 | 29.93434 | 24816 ft | 400 kts | 167° |
| 2026-05-01 13:21 | 38.78430 | 29.94654 | 24308 ft | 396 kts | 167° |
| 2026-05-01 13:22 | 38.75842 | 29.95877 | 23813 ft | 392 kts | 167° |
| 2026-05-01 13:22 | 38.73298 | 29.97083 | 23326 ft | 388 kts | 167° |
| 2026-05-01 13:22 | 38.70800 | 29.98262 | 22840 ft | 384 kts | 167° |
| 2026-05-01 13:22 | 38.68309 | 29.99437 | 22354 ft | 380 kts | 166° |
| 2026-05-01 13:23 | 38.65838 | 30.00604 | 21883 ft | 377 kts | 166° |
| 2026-05-01 13:23 | 38.63371 | 30.01771 | 21407 ft | 374 kts | 166° |
| 2026-05-01 13:23 | 38.60977 | 30.02901 | 20941 ft | 370 kts | 166° |
| 2026-05-01 13:23 | 38.58550 | 30.04047 | 20459 ft | 367 kts | 166° |
| 2026-05-01 13:24 | 38.56152 | 30.05178 | 19985 ft | 366 kts | 166° |
| 2026-05-01 13:24 | 38.53772 | 30.06296 | 19511 ft | 370 kts | 166° |
| 2026-05-01 13:24 | 38.51350 | 30.07432 | 19005 ft | 368 kts | 166° |
| 2026-05-01 13:25 | 38.46581 | 30.09682 | 18007 ft | 363 kts | 165° |
| 2026-05-01 13:25 | 38.44236 | 30.10788 | 17531 ft | 361 kts | 165° |
| 2026-05-01 13:25 | 38.41890 | 30.11894 | 17046 ft | 358 kts | 165° |
| 2026-05-01 13:25 | 38.39568 | 30.12986 | 16569 ft | 355 kts | 165° |
| 2026-05-01 13:26 | 38.37237 | 30.14025 | 16088 ft | 350 kts | 169° |
| 2026-05-01 13:26 | 38.34906 | 30.14561 | 15625 ft | 339 kts | 184° |
| 2026-05-01 13:26 | 38.32639 | 30.14148 | 15182 ft | 326 kts | 202° |
| 2026-05-01 13:26 | 38.30623 | 30.12936 | 14713 ft | 317 kts | 215° |
| 2026-05-01 13:27 | 38.28723 | 30.11492 | 14247 ft | 321 kts | 208° |
| 2026-05-01 13:27 | 38.26560 | 30.10629 | 13811 ft | 331 kts | 195° |
| 2026-05-01 13:27 | 38.21997 | 30.09834 | 12861 ft | 329 kts | 192° |
| 2026-05-01 13:28 | 38.17515 | 30.08917 | 11928 ft | 323 kts | 194° |
| 2026-05-01 13:28 | 38.15313 | 30.08375 | 11479 ft | 321 kts | 195° |
| 2026-05-01 13:29 | 38.10989 | 30.07274 | 10743 ft | 310 kts | 195° |
| 2026-05-01 13:29 | 38.06908 | 30.06236 | 10470 ft | 287 kts | 195° |
| 2026-05-01 13:30 | 37.99444 | 30.04339 | 9143 ft | 267 kts | 195° |
| 2026-05-01 13:31 | 37.95848 | 30.03391 | 8273 ft | 260 kts | 199° |
| 2026-05-01 13:31 | 37.92242 | 29.98832 | 7375 ft | 247 kts | 241° |
| 2026-05-01 13:32 | 37.90520 | 29.95157 | 6858 ft | 239 kts | 240° |
| 2026-05-01 13:33 | 37.88007 | 29.89916 | 6137 ft | 231 kts | 239° |
| 2026-05-01 13:33 | 37.86354 | 29.86440 | 5483 ft | 229 kts | 240° |
| 2026-05-01 13:34 | 37.84739 | 29.83058 | 4860 ft | 214 kts | 239° |
| 2026-05-01 13:34 | 37.83328 | 29.80104 | 4333 ft | 181 kts | 240° |
| 2026-05-01 13:35 | 37.82136 | 29.77604 | 3864 ft | 153 kts | 240° |
| 2026-05-01 13:35 | 37.81597 | 29.76478 | 3695 ft | 149 kts | 241° |
| 2026-05-01 13:35 | 37.80486 | 29.74214 | 3251 ft | 150 kts | 239° |
| 2026-05-01 13:36 | 37.79961 | 29.73106 | 3060 ft | 147 kts | 243° |
| 2026-05-01 13:36 | 37.79428 | 29.71999 | 2905 ft | 149 kts | 242° |
| 2026-05-01 13:36 | 37.78593 | 29.70204 | 2797 ft | 58 kts | 239° |
| 2026-05-01 13:37 | 37.78400 | 29.69794 | 2798 ft | 53 kts | 239° |
| 2026-05-01 13:37 | 37.78243 | 29.69469 | 2801 ft | 29 kts | 240° |
| 2026-05-01 13:37 | 37.78147 | 29.69250 | 2802 ft | 27 kts | 243° |
| 2026-05-01 13:37 | 37.78048 | 29.69052 | 2804 ft | 26 kts | 240° |
| 2026-05-01 13:38 | 37.77894 | 29.68708 | 2805 ft | 15 kts | 265° |
| 2026-05-01 13:38 | 37.77950 | 29.68613 | 2806 ft | 13 kts | 326° |
| 2026-05-01 13:38 | 37.78018 | 29.68637 | 2806 ft | 11 kts | 59° |
| 2026-05-01 13:39 | 37.78061 | 29.68727 | 2805 ft | 11 kts | 60° |
| 2026-05-01 13:39 | 37.78103 | 29.68818 | 2804 ft | 12 kts | 59° |
| 2026-05-01 13:39 | 37.78150 | 29.68918 | 2802 ft | 13 kts | 59° |
| 2026-05-01 13:39 | 37.78199 | 29.69021 | 2801 ft | 13 kts | 59° |
| 2026-05-01 13:40 | 37.78249 | 29.69127 | 2800 ft | 14 kts | 59° |
| 2026-05-01 13:40 | 37.78304 | 29.69243 | 2799 ft | 15 kts | 59° |
| 2026-05-01 13:40 | 37.78361 | 29.69361 | 2798 ft | 16 kts | 59° |
| 2026-05-01 13:40 | 37.78439 | 29.69523 | 2797 ft | 28 kts | 59° |
| 2026-05-01 13:41 | 37.78546 | 29.69741 | 2795 ft | 29 kts | 62° |
| 2026-05-01 13:41 | 37.78648 | 29.69965 | 2795 ft | 29 kts | 59° |
| 2026-05-01 13:41 | 37.78752 | 29.70180 | 2794 ft | 28 kts | 59° |
| 2026-05-01 13:41 | 37.78854 | 29.70393 | 2792 ft | 28 kts | 60° |
| 2026-05-01 13:42 | 37.78953 | 29.70602 | 2790 ft | 21 kts | 59° |
| 2026-05-01 13:42 | 37.78983 | 29.70713 | 2789 ft | 12 kts | 114° |
| 2026-05-01 13:42 | 37.78916 | 29.70775 | 2791 ft | 12 kts | 157° |
| 2026-05-01 13:42 | 37.78836 | 29.70712 | 2792 ft | 20 kts | 238° |
| 2026-05-01 13:43 | 37.78735 | 29.70500 | 2794 ft | 37 kts | 239° |
| 2026-05-01 13:43 | 37.78572 | 29.70157 | 2797 ft | 50 kts | 239° |
| 2026-05-01 13:43 | 37.78393 | 29.69781 | 2798 ft | 47 kts | 239° |
| 2026-05-01 13:43 | 37.78227 | 29.69434 | 2801 ft | 45 kts | 239° |
| 2026-05-01 13:44 | 37.78071 | 29.69109 | 2804 ft | 32 kts | 239° |
| 2026-05-01 13:44 | 37.77973 | 29.68902 | 2806 ft | 23 kts | 239° |
| 2026-05-01 13:44 | 37.77888 | 29.68730 | 2805 ft | 17 kts | 225° |
| 2026-05-01 13:44 | 37.77815 | 29.68723 | 2805 ft | 10 kts | 154° |
| 2026-05-01 13:45 | 37.77718 | 29.68795 | 2805 ft | 22 kts | 149° |
| 2026-05-01 13:45 | 37.77596 | 29.68887 | 2807 ft | 14 kts | 148° |
| 2026-05-01 13:45 | 37.77540 | 29.68901 | 2808 ft | 5 kts | 196° |
| 2026-05-01 13:45 | 37.77512 | 29.68902 | 2808 ft | 2 kts | 162° |
| 2026-05-01 13:46 | 37.77499 | 29.68909 | 2808 ft | 1 kts | 155° |
| 2026-05-01 13:46 | 37.77492 | 29.68914 | 2808 ft | 0 kts | 153° |
| 2026-05-01 13:46 | 37.77482 | 29.68921 | 2808 ft | 1 kts | 148° |
| 2026-05-01 13:46 | 37.77472 | 29.68929 | 2808 ft | 0 kts | 149° |
| 2026-05-01 13:47 | 37.77470 | 29.68930 | 2808 ft | 0 kts | 148° |
| 2026-05-01 13:47 | 37.77469 | 29.68931 | 2808 ft | 0 kts | 148° |